YPLM

Details ICAO YPLM (LEA)
Name Learmonth
Region Australia
Timezone Australia/Perth (UTC+8.0)
Plans Departing 21
Arriving 36
Stats Elevation 19 ft / 6 m (AMSL)
Location -22.233620° 114.090064°
Runways 1
Magnetic Variation 0.282° E
Sunrise 2018-05-25 22:54:24 UTC / 2018-05-26 06:54:24 Local
Sunset 2018-05-26 09:49:46 UTC / 2018-05-26 17:49:46 Local
Advertisement - Login to hide

Runways

ID Width Length Bearing (true) Bearing (mag) Surface Threshold Offset Overrun Length
18 148 ft / 45 m 10,548 ft / 3,215 m 183.82° 183.54° Asphalt 180 ft / 55 m 0 ft / 0 m
36 148 ft / 45 m 10,548 ft / 3,215 m 3.82° 3.54° Asphalt 240 ft / 73 m 0 ft / 0 m

Map

Weather


0- 5 10 15 20 25 30 35+ Temperature / ° C

Clouds and Precipitation
Forecast for 2018-05-26 06:00 UTC. Updated 3 hours ago

Ground ~20,000 ft ~40,000 ft Winds

METAR

YPLM 260830Z AUTO 18013KT 9999 // SCT052 24/12 Q1014

TAF

TAF YPLM 260522Z 2606/2706 19010KT 9999 BKN040 FM261200 17012KT CAVOK

Frequencies

Unicom 118.30 MHz CTAF
Approach 120.50 MHz APP
Tower 118.30 MHz TWR
Warning: Do not use this data for real-world aviation or navigation. No guarantee of current accuracy is given.